createdAt,value
2022-12-18T06:45:16.981Z,-8.80
2022-12-18T06:47:45.135Z,-8.90
2022-12-18T06:50:14.081Z,-8.90
2022-12-18T06:52:43.615Z,-8.90
2022-12-18T06:55:12.697Z,-8.80
2022-12-18T06:57:40.803Z,-8.90
2022-12-18T07:00:10.186Z,-8.90
2022-12-18T07:02:42.963Z,-8.90
2022-12-18T07:05:11.349Z,-9.00
2022-12-18T07:07:39.798Z,-9.00
2022-12-18T07:10:08.238Z,-8.80
2022-12-18T07:12:36.295Z,-8.90
2022-12-18T07:15:04.841Z,-9.00
2022-12-18T07:17:32.905Z,-9.00
2022-12-18T07:20:02.738Z,-9.00
2022-12-18T07:22:30.793Z,-9.10
2022-12-18T07:24:58.746Z,-8.90
2022-12-18T07:27:26.800Z,-8.70
2022-12-18T07:29:55.985Z,-8.90
2022-12-18T07:32:24.120Z,-9.00
2022-12-18T08:05:12.402Z,-8.40
2022-12-18T08:07:40.385Z,-8.40
2022-12-18T08:10:09.619Z,-8.40
2022-12-18T08:12:37.816Z,-8.40
2022-12-18T08:15:06.680Z,-8.40
2022-12-18T08:17:35.720Z,-8.20
2022-12-18T08:20:04.027Z,-8.30
2022-12-18T08:22:43.136Z,-8.30
2022-12-18T08:25:11.673Z,-8.20
2022-12-18T08:27:39.665Z,-8.10
2022-12-18T08:30:09.069Z,-8.30
2022-12-18T08:32:37.418Z,-8.40
2022-12-18T08:35:06.358Z,-8.20
2022-12-18T08:37:35.770Z,-8.10
2022-12-18T08:40:03.887Z,-8.10
2022-12-18T08:42:49.526Z,-8.00
2022-12-18T08:45:18.519Z,-8.00
2022-12-18T08:47:46.602Z,-7.90
2022-12-18T08:50:15.691Z,-7.80
2022-12-18T08:52:45.011Z,-7.60
2022-12-18T08:55:13.332Z,-7.40
2022-12-18T08:57:41.317Z,-7.30
2022-12-18T09:00:12.033Z,-7.10
2022-12-18T09:02:40.235Z,-7.10
2022-12-18T09:05:08.962Z,-7.00
2022-12-18T09:07:37.367Z,-6.80
2022-12-18T09:10:07.990Z,-6.60
2022-12-18T09:12:38.022Z,-6.50
2022-12-18T09:15:07.135Z,-6.20
2022-12-18T09:17:35.217Z,-6.20
2022-12-18T09:20:03.196Z,-5.80
2022-12-18T09:22:31.205Z,-5.60
2022-12-18T09:24:59.201Z,-5.40
2022-12-18T09:27:28.647Z,-5.20
2022-12-18T09:29:56.680Z,-5.00
2022-12-18T09:32:24.693Z,-4.60
2022-12-18T09:34:52.745Z,-4.60
2022-12-18T09:37:20.722Z,-4.40
2022-12-18T10:27:31.233Z,-1.50
2022-12-18T10:30:00.181Z,-2.00
2022-12-18T10:32:30.501Z,-2.00
2022-12-18T10:35:00.986Z,-1.80
2022-12-18T10:37:31.394Z,-1.80
2022-12-18T10:40:21.488Z,-1.70
2022-12-18T10:43:05.951Z,-1.30
2022-12-18T10:45:34.364Z,-1.50
2022-12-18T10:48:02.728Z,-1.20
2022-12-18T10:51:08.671Z,-1.20
2022-12-18T10:53:24.680Z,-1.40
2022-12-18T10:55:54.904Z,-0.90
2022-12-18T11:26:03.779Z,-0.30
2022-12-18T11:28:42.280Z,-0.50
2022-12-18T11:31:33.792Z,-0.70
2022-12-18T17:48:20.927Z,0.20
2022-12-18T17:54:42.472Z,0.20
2022-12-18T18:01:01.992Z,0.20
2022-12-18T21:24:50.443Z,0.30
